Seadream 1 — C6PW8 — position and weather

sailwx.info

Track history (hours):
 
Tides and Currents Weather Stations Pressure Air Temp Water Temp Dewpoint Dewpoint Depression Visibility Wind Speed Wind Dir Waves Ship Positions

Seadream 1

Last reported at 2015-May-30 08:33 UTC. Time now 2015-May-30 08:36 UTC.
Position N 37°56' E 023°38'.

Length 105 m; draft 4.3 m.

Type: Ship. MMSI: 308908000.

Date/timePositionNaut miles runAvg speedWind from/ knotsBaromVisibWave heightAir tempDewpointWater temp
2015-May-30 08:33N 37°56' E 023°38'0 0.0
2015-May-30 07:33N 37°56' E 023°38'0 0.0
2015-May-30 06:31N 37°56' E 023°38'0 0.0
2015-May-30 05:23N 37°56' E 023°38'0 0.0
2015-May-30 04:27N 37°56' E 023°38'0 0.0
2015-May-30 03:33N 37°56' E 023°38'0 0.0
2015-May-30 02:31N 37°56' E 023°38'0 0.0
2015-May-30 01:32N 37°56' E 023°38'0 0.0
2015-May-30 00:32N 37°56' E 023°38'0 0.0
2015-May-29 23:33N 37°56' E 023°38'0 0.0
2015-May-29 22:34N 37°56' E 023°38'0 0.0
2015-May-29 21:30N 37°56' E 023°38'0 0.0
2015-May-29 20:31N 37°56' E 023°38'0 0.0
2015-May-29 19:28N 37°56' E 023°38'0 0.0
2015-May-29 18:32N 37°56' E 023°38'0 0.0
2015-May-29 17:33N 37°56' E 023°38'9 9.5
2015-May-29 16:34N 37°47' E 023°41'1313.3
2015-May-29 15:34N 37°34' E 023°41'1514.2
2015-May-29 14:31N 37°22' E 023°29'2 1.7
2015-May-29 13:23N 37°21' E 023°27'0 0.0
2015-May-29 12:09N 37°21' E 023°27'0 0.0
2015-May-29 11:21N 37°21' E 023°27'0 0.0
2015-May-29 10:25N 37°21' E 023°27'0 0.0
2015-May-29 09:28N 37°21' E 023°27'0 0.0
2015-May-29 08:11N 37°21' E 023°27'0 0.0
2015-May-29 07:06N 37°21' E 023°27'0 0.0
2015-May-29 06:23N 37°21' E 023°28'0 0.1
2015-May-29 05:28N 37°21' E 023°28'62 7.7
2015-May-28 21:28N 37°19' E 024°45'1111.7
2015-May-28 20:34N 37°22' E 024°58'1211.7
2015-May-28 19:33N 37°27' E 025°11'7 6.5
2015-May-28 18:34N 37°27' E 025°19'0 0.0
2015-May-28 17:33N 37°27' E 025°19'0 0.0
2015-May-28 16:31N 37°27' E 025°19'0 0.0
2015-May-28 15:32N 37°27' E 025°19'0 0.0
2015-May-28 14:32N 37°27' E 025°19'0 0.0
2015-May-28 13:33N 37°27' E 025°19'0 0.0
2015-May-28 12:31N 37°27' E 025°19'0 0.0
2015-May-28 11:32N 37°27' E 025°19'0 0.0
2015-May-28 10:32N 37°27' E 025°19'0 0.0
2015-May-28 09:33N 37°27' E 025°19'0 0.0
2015-May-28 08:32N 37°27' E 025°19'0 0.0
2015-May-28 07:33N 37°27' E 025°19'0 0.0
2015-May-28 06:31N 37°27' E 025°19'0 0.0
2015-May-28 05:32N 37°27' E 025°19'4 4.1
2015-May-28 04:34N 37°28' E 025°14'2 2.4
2015-May-28 03:33N 37°29' E 025°12'0 0.4
2015-May-28 02:34N 37°29' E 025°12'1 1.1
2015-May-28 01:34N 37°28' E 025°13'1 0.9
2015-May-28 00:34N 37°28' E 025°14'1 0.7
2015-May-27 23:34N 37°28' E 025°14'1 1.4
2015-May-27 22:34N 37°28' E 025°13'6 6.2
2015-May-27 21:34N 37°22' E 025°11'8 8.3
2015-May-27 20:34N 37°18' E 025°20'5 4.7
2015-May-27 19:33N 37°14' E 025°22'1111.2
2015-May-27 18:34N 37°03' E 025°18'35 8.7
2015-May-27 14:33N 36°28' E 025°21'5 4.8
2015-May-27 13:33N 36°25' E 025°25'0 0.1
2015-May-27 12:33N 36°25' E 025°25'0 0.1
2015-May-27 11:32N 36°25' E 025°25'0 0.0
2015-May-27 10:31N 36°25' E 025°25'0 0.0
2015-May-27 09:32N 36°25' E 025°25'0 0.1
2015-May-27 08:32N 36°25' E 025°25'0 0.0
2015-May-27 07:32N 36°25' E 025°25'0 0.0
2015-May-27 06:33N 36°25' E 025°25'2 1.7
2015-May-27 05:33N 36°23' E 025°24'5 4.7
2015-May-27 04:33N 36°19' E 025°26'9 9.0
2015-May-27 03:33N 36°17' E 025°37'9 9.0
2015-May-27 02:33N 36°15' E 025°48'9 9.3
2015-May-27 01:34N 36°14' E 025°59'8 8.4
2015-May-27 00:33N 36°13' E 026°10'57 9.5
2015-May-26 18:30N 36°17' E 027°20'1111.3
2015-May-26 17:33N 36°19' E 027°33'  
2015-May-24 01:32N 37°17' E 026°39'6 5.8
2015-May-24 00:33N 37°23' E 026°39'2311.2
2015-May-23 22:32N 37°45' E 026°33'2110.6
2015-May-23 20:33N 37°53' E 026°58'  
Track history (hours):
 
Tides and Currents Weather Stations Pressure Air Temp Water Temp Dewpoint Dewpoint Depression Visibility Wind Speed Wind Dir Waves Ship Positions

Seadream 1

Last reported at 2015-May-30 08:33 UTC. Time now 2015-May-30 08:36 UTC.
Position N 37°56' E 023°38'.

Length 105 m; draft 4.3 m.

Type: Ship. MMSI: 308908000.

Date/timePositionNaut miles runAvg speedWind from/ knotsBaromVisibWave heightAir tempDewpointWater temp
2015-May-30 08:33N 37°56' E 023°38'0 0.0
2015-May-30 07:33N 37°56' E 023°38'0 0.0
2015-May-30 06:31N 37°56' E 023°38'0 0.0
2015-May-30 05:23N 37°56' E 023°38'0 0.0
2015-May-30 04:27N 37°56' E 023°38'0 0.0
2015-May-30 03:33N 37°56' E 023°38'0 0.0
2015-May-30 02:31N 37°56' E 023°38'0 0.0
2015-May-30 01:32N 37°56' E 023°38'0 0.0
2015-May-30 00:32N 37°56' E 023°38'0 0.0
2015-May-29 23:33N 37°56' E 023°38'0 0.0
2015-May-29 22:34N 37°56' E 023°38'0 0.0
2015-May-29 21:30N 37°56' E 023°38'0 0.0
2015-May-29 20:31N 37°56' E 023°38'0 0.0
2015-May-29 19:28N 37°56' E 023°38'0 0.0
2015-May-29 18:32N 37°56' E 023°38'0 0.0
2015-May-29 17:33N 37°56' E 023°38'9 9.5
2015-May-29 16:34N 37°47' E 023°41'1313.3
2015-May-29 15:34N 37°34' E 023°41'1514.2
2015-May-29 14:31N 37°22' E 023°29'2 1.7
2015-May-29 13:23N 37°21' E 023°27'0 0.0
2015-May-29 12:09N 37°21' E 023°27'0 0.0
2015-May-29 11:21N 37°21' E 023°27'0 0.0
2015-May-29 10:25N 37°21' E 023°27'0 0.0
2015-May-29 09:28N 37°21' E 023°27'0 0.0
2015-May-29 08:11N 37°21' E 023°27'0 0.0
2015-May-29 07:06N 37°21' E 023°27'0 0.0
2015-May-29 06:23N 37°21' E 023°28'0 0.1
2015-May-29 05:28N 37°21' E 023°28'62 7.7
2015-May-28 21:28N 37°19' E 024°45'1111.7
2015-May-28 20:34N 37°22' E 024°58'1211.7
2015-May-28 19:33N 37°27' E 025°11'7 6.5
2015-May-28 18:34N 37°27' E 025°19'0 0.0
2015-May-28 17:33N 37°27' E 025°19'0 0.0
2015-May-28 16:31N 37°27' E 025°19'0 0.0
2015-May-28 15:32N 37°27' E 025°19'0 0.0
2015-May-28 14:32N 37°27' E 025°19'0 0.0
2015-May-28 13:33N 37°27' E 025°19'0 0.0
2015-May-28 12:31N 37°27' E 025°19'0 0.0
2015-May-28 11:32N 37°27' E 025°19'0 0.0
2015-May-28 10:32N 37°27' E 025°19'0 0.0
2015-May-28 09:33N 37°27' E 025°19'0 0.0
2015-May-28 08:32N 37°27' E 025°19'0 0.0
2015-May-28 07:33N 37°27' E 025°19'0 0.0
2015-May-28 06:31N 37°27' E 025°19'0 0.0
2015-May-28 05:32N 37°27' E 025°19'4 4.1
2015-May-28 04:34N 37°28' E 025°14'2 2.4
2015-May-28 03:33N 37°29' E 025°12'0 0.4
2015-May-28 02:34N 37°29' E 025°12'1 1.1
2015-May-28 01:34N 37°28' E 025°13'1 0.9
2015-May-28 00:34N 37°28' E 025°14'1 0.7
2015-May-27 23:34N 37°28' E 025°14'1 1.4
2015-May-27 22:34N 37°28' E 025°13'6 6.2
2015-May-27 21:34N 37°22' E 025°11'8 8.3
2015-May-27 20:34N 37°18' E 025°20'5 4.7
2015-May-27 19:33N 37°14' E 025°22'1111.2
2015-May-27 18:34N 37°03' E 025°18'35 8.7
2015-May-27 14:33N 36°28' E 025°21'5 4.8
2015-May-27 13:33N 36°25' E 025°25'0 0.1
2015-May-27 12:33N 36°25' E 025°25'0 0.1
2015-May-27 11:32N 36°25' E 025°25'0 0.0
2015-May-27 10:31N 36°25' E 025°25'0 0.0
2015-May-27 09:32N 36°25' E 025°25'0 0.1
2015-May-27 08:32N 36°25' E 025°25'0 0.0
2015-May-27 07:32N 36°25' E 025°25'0 0.0
2015-May-27 06:33N 36°25' E 025°25'2 1.7
2015-May-27 05:33N 36°23' E 025°24'5 4.7
2015-May-27 04:33N 36°19' E 025°26'9 9.0
2015-May-27 03:33N 36°17' E 025°37'9 9.0
2015-May-27 02:33N 36°15' E 025°48'9 9.3
2015-May-27 01:34N 36°14' E 025°59'8 8.4
2015-May-27 00:33N 36°13' E 026°10'57 9.5
2015-May-26 18:30N 36°17' E 027°20'1111.3
2015-May-26 17:33N 36°19' E 027°33'  
2015-May-24 01:32N 37°17' E 026°39'6 5.8
2015-May-24 00:33N 37°23' E 026°39'2311.2
2015-May-23 22:32N 37°45' E 026°33'2110.6
2015-May-23 20:33N 37°53' E 026°58'  

Dump ship's entire track history